sensor_id;sensor_type;location;lat;lon;timestamp;P1;durP1;ratioP1;P2;durP2;ratioP2
29162;SDS011;20331;53.144;8.208;2024-02-26T00:02:37;18.00;;;12.57;;
29162;SDS011;20331;53.144;8.208;2024-02-26T00:08:03;19.63;;;12.82;;
29162;SDS011;20331;53.144;8.208;2024-02-26T00:13:26;17.48;;;12.88;;
29162;SDS011;20331;53.144;8.208;2024-02-26T00:18:47;19.00;;;13.98;;
29162;SDS011;20331;53.144;8.208;2024-02-26T00:24:11;19.10;;;12.77;;
29162;SDS011;20331;53.144;8.208;2024-02-26T00:29:33;18.80;;;13.30;;
29162;SDS011;20331;53.144;8.208;2024-02-26T00:34:54;17.80;;;12.90;;
29162;SDS011;20331;53.144;8.208;2024-02-26T00:40:16;18.05;;;12.40;;
29162;SDS011;20331;53.144;8.208;2024-02-26T00:45:38;16.38;;;12.60;;
29162;SDS011;20331;53.144;8.208;2024-02-26T00:51:00;16.13;;;12.07;;
29162;SDS011;20331;53.144;8.208;2024-02-26T00:56:22;19.08;;;12.75;;
29162;SDS011;20331;53.144;8.208;2024-02-26T01:01:43;16.35;;;11.93;;
29162;SDS011;20331;53.144;8.208;2024-02-26T01:07:05;14.48;;;11.45;;
29162;SDS011;20331;53.144;8.208;2024-02-26T01:12:27;14.73;;;11.65;;
29162;SDS011;20331;53.144;8.208;2024-02-26T01:17:52;14.57;;;11.00;;
29162;SDS011;20331;53.144;8.208;2024-02-26T01:23:14;14.75;;;10.98;;
29162;SDS011;20331;53.144;8.208;2024-02-26T01:28:35;14.20;;;10.55;;
29162;SDS011;20331;53.144;8.208;2024-02-26T01:33:57;15.93;;;11.35;;
29162;SDS011;20331;53.144;8.208;2024-02-26T01:39:19;15.52;;;11.02;;
29162;SDS011;20331;53.144;8.208;2024-02-26T01:44:40;16.20;;;11.35;;
29162;SDS011;20331;53.144;8.208;2024-02-26T01:50:04;15.63;;;11.65;;
29162;SDS011;20331;53.144;8.208;2024-02-26T01:55:27;15.82;;;11.68;;
29162;SDS011;20331;53.144;8.208;2024-02-26T02:00:49;15.95;;;11.27;;
29162;SDS011;20331;53.144;8.208;2024-02-26T02:06:11;14.35;;;11.32;;
29162;SDS011;20331;53.144;8.208;2024-02-26T02:11:34;15.57;;;11.13;;
29162;SDS011;20331;53.144;8.208;2024-02-26T02:16:56;16.27;;;11.75;;
29162;SDS011;20331;53.144;8.208;2024-02-26T02:22:17;15.00;;;11.68;;
29162;SDS011;20331;53.144;8.208;2024-02-26T02:27:39;17.27;;;11.80;;
29162;SDS011;20331;53.144;8.208;2024-02-26T02:33:02;17.40;;;11.48;;
29162;SDS011;20331;53.144;8.208;2024-02-26T02:38:24;17.63;;;11.77;;
29162;SDS011;20331;53.144;8.208;2024-02-26T02:43:47;15.60;;;11.52;;
29162;SDS011;20331;53.144;8.208;2024-02-26T02:49:09;16.52;;;11.55;;
29162;SDS011;20331;53.144;8.208;2024-02-26T02:54:32;15.07;;;11.15;;
29162;SDS011;20331;53.144;8.208;2024-02-26T02:59:54;18.27;;;11.52;;
29162;SDS011;20331;53.144;8.208;2024-02-26T03:05:15;15.85;;;11.23;;
29162;SDS011;20331;53.144;8.208;2024-02-26T03:10:37;15.45;;;11.15;;
29162;SDS011;20331;53.144;8.208;2024-02-26T03:16:04;15.55;;;11.38;;
29162;SDS011;20331;53.144;8.208;2024-02-26T03:21:27;16.98;;;11.55;;
29162;SDS011;20331;53.144;8.208;2024-02-26T03:26:48;16.85;;;11.80;;
29162;SDS011;20331;53.144;8.208;2024-02-26T03:32:10;15.82;;;10.63;;
29162;SDS011;20331;53.144;8.208;2024-02-26T03:37:32;18.02;;;11.77;;
29162;SDS011;20331;53.144;8.208;2024-02-26T03:42:54;19.55;;;12.77;;
29162;SDS011;20331;53.144;8.208;2024-02-26T03:48:16;20.23;;;13.80;;
29162;SDS011;20331;53.144;8.208;2024-02-26T03:53:37;21.17;;;14.15;;
29162;SDS011;20331;53.144;8.208;2024-02-26T03:58:59;22.80;;;14.38;;
29162;SDS011;20331;53.144;8.208;2024-02-26T04:04:23;27.20;;;15.27;;
29162;SDS011;20331;53.144;8.208;2024-02-26T04:09:45;28.05;;;16.85;;
29162;SDS011;20331;53.144;8.208;2024-02-26T04:15:09;27.25;;;17.38;;
29162;SDS011;20331;53.144;8.208;2024-02-26T04:20:32;27.13;;;17.73;;
29162;SDS011;20331;53.144;8.208;2024-02-26T04:25:54;27.70;;;16.40;;
29162;SDS011;20331;53.144;8.208;2024-02-26T04:31:15;29.70;;;17.63;;
29162;SDS011;20331;53.144;8.208;2024-02-26T04:36:37;34.28;;;19.40;;
29162;SDS011;20331;53.144;8.208;2024-02-26T04:41:59;30.15;;;18.77;;
29162;SDS011;20331;53.144;8.208;2024-02-26T04:47:20;34.83;;;19.35;;
29162;SDS011;20331;53.144;8.208;2024-02-26T04:52:43;29.52;;;17.60;;
29162;SDS011;20331;53.144;8.208;2024-02-26T04:58:06;27.92;;;16.67;;
29162;SDS011;20331;53.144;8.208;2024-02-26T05:03:27;26.38;;;15.32;;
29162;SDS011;20331;53.144;8.208;2024-02-26T05:08:49;24.30;;;15.38;;
29162;SDS011;20331;53.144;8.208;2024-02-26T05:14:11;24.25;;;16.13;;
29162;SDS011;20331;53.144;8.208;2024-02-26T05:19:33;21.65;;;14.50;;
29162;SDS011;20331;53.144;8.208;2024-02-26T05:24:54;22.65;;;13.73;;
29162;SDS011;20331;53.144;8.208;2024-02-26T05:30:16;24.90;;;13.77;;
29162;SDS011;20331;53.144;8.208;2024-02-26T05:35:38;23.08;;;13.38;;
29162;SDS011;20331;53.144;8.208;2024-02-26T05:41:00;24.77;;;13.95;;
29162;SDS011;20331;53.144;8.208;2024-02-26T05:46:22;28.02;;;16.25;;
29162;SDS011;20331;53.144;8.208;2024-02-26T05:51:44;29.30;;;16.05;;
29162;SDS011;20331;53.144;8.208;2024-02-26T05:57:06;24.83;;;15.20;;
29162;SDS011;20331;53.144;8.208;2024-02-26T06:02:28;23.20;;;13.82;;
29162;SDS011;20331;53.144;8.208;2024-02-26T06:07:49;21.60;;;14.02;;
29162;SDS011;20331;53.144;8.208;2024-02-26T06:13:11;23.90;;;14.63;;
29162;SDS011;20331;53.144;8.208;2024-02-26T06:18:33;22.13;;;13.88;;
29162;SDS011;20331;53.144;8.208;2024-02-26T06:23:55;22.77;;;13.27;;
29162;SDS011;20331;53.144;8.208;2024-02-26T06:29:17;22.15;;;13.30;;
29162;SDS011;20331;53.144;8.208;2024-02-26T06:34:38;18.67;;;12.38;;
29162;SDS011;20331;53.144;8.208;2024-02-26T06:40:02;20.48;;;12.07;;
29162;SDS011;20331;53.144;8.208;2024-02-26T06:45:30;15.98;;;11.23;;
29162;SDS011;20331;53.144;8.208;2024-02-26T06:50:53;15.73;;;10.98;;
29162;SDS011;20331;53.144;8.208;2024-02-26T06:56:15;13.70;;;10.50;;
29162;SDS011;20331;53.144;8.208;2024-02-26T07:01:41;15.35;;;10.32;;
29162;SDS011;20331;53.144;8.208;2024-02-26T07:07:08;15.32;;;9.63;;
29162;SDS011;20331;53.144;8.208;2024-02-26T07:12:31;12.75;;;9.40;;
29162;SDS011;20331;53.144;8.208;2024-02-26T07:17:53;11.63;;;8.90;;
29162;SDS011;20331;53.144;8.208;2024-02-26T07:23:15;12.10;;;9.02;;
29162;SDS011;20331;53.144;8.208;2024-02-26T07:28:36;11.35;;;8.77;;
29162;SDS011;20331;53.144;8.208;2024-02-26T07:34:00;11.73;;;8.65;;
29162;SDS011;20331;53.144;8.208;2024-02-26T07:39:22;11.00;;;8.77;;
29162;SDS011;20331;53.144;8.208;2024-02-26T07:44:44;12.07;;;8.80;;
29162;SDS011;20331;53.144;8.208;2024-02-26T07:50:07;11.73;;;8.55;;
29162;SDS011;20331;53.144;8.208;2024-02-26T07:55:30;11.65;;;8.85;;
29162;SDS011;20331;53.144;8.208;2024-02-26T08:00:52;12.68;;;8.55;;
29162;SDS011;20331;53.144;8.208;2024-02-26T08:06:14;16.45;;;8.75;;
29162;SDS011;20331;53.144;8.208;2024-02-26T08:11:36;10.85;;;8.07;;
29162;SDS011;20331;53.144;8.208;2024-02-26T08:16:58;10.90;;;7.65;;
29162;SDS011;20331;53.144;8.208;2024-02-26T08:22:20;12.40;;;7.70;;
29162;SDS011;20331;53.144;8.208;2024-02-26T08:27:41;10.55;;;7.30;;
29162;SDS011;20331;53.144;8.208;2024-02-26T08:33:03;10.48;;;8.07;;
29162;SDS011;20331;53.144;8.208;2024-02-26T08:38:26;8.68;;;6.85;;
29162;SDS011;20331;53.144;8.208;2024-02-26T08:43:49;11.05;;;7.60;;
29162;SDS011;20331;53.144;8.208;2024-02-26T08:49:10;9.05;;;7.30;;
29162;SDS011;20331;53.144;8.208;2024-02-26T08:54:33;10.25;;;7.95;;
29162;SDS011;20331;53.144;8.208;2024-02-26T08:59:55;13.10;;;7.35;;
29162;SDS011;20331;53.144;8.208;2024-02-26T09:05:17;9.43;;;7.40;;
29162;SDS011;20331;53.144;8.208;2024-02-26T09:10:39;10.77;;;7.70;;
29162;SDS011;20331;53.144;8.208;2024-02-26T09:16:01;10.88;;;7.93;;
29162;SDS011;20331;53.144;8.208;2024-02-26T09:21:23;13.07;;;7.60;;
29162;SDS011;20331;53.144;8.208;2024-02-26T09:26:46;10.50;;;7.32;;
29162;SDS011;20331;53.144;8.208;2024-02-26T09:32:08;11.07;;;7.95;;
29162;SDS011;20331;53.144;8.208;2024-02-26T09:37:30;10.20;;;7.93;;
29162;SDS011;20331;53.144;8.208;2024-02-26T09:42:53;12.20;;;8.32;;
29162;SDS011;20331;53.144;8.208;2024-02-26T09:48:20;12.02;;;8.48;;
29162;SDS011;20331;53.144;8.208;2024-02-26T09:53:44;12.25;;;8.93;;
29162;SDS011;20331;53.144;8.208;2024-02-26T09:59:13;12.75;;;8.48;;
29162;SDS011;20331;53.144;8.208;2024-02-26T10:04:43;10.30;;;8.27;;
29162;SDS011;20331;53.144;8.208;2024-02-26T10:10:10;13.18;;;9.07;;
29162;SDS011;20331;53.144;8.208;2024-02-26T10:15:32;12.55;;;8.50;;
29162;SDS011;20331;53.144;8.208;2024-02-26T10:21:01;10.65;;;7.97;;
29162;SDS011;20331;53.144;8.208;2024-02-26T10:26:23;10.15;;;7.72;;
29162;SDS011;20331;53.144;8.208;2024-02-26T10:31:45;9.57;;;7.60;;
29162;SDS011;20331;53.144;8.208;2024-02-26T10:37:22;12.02;;;8.02;;
29162;SDS011;20331;53.144;8.208;2024-02-26T10:42:47;12.60;;;8.40;;
29162;SDS011;20331;53.144;8.208;2024-02-26T10:48:13;10.50;;;7.90;;
29162;SDS011;20331;53.144;8.208;2024-02-26T10:53:37;10.75;;;7.75;;
29162;SDS011;20331;53.144;8.208;2024-02-26T10:59:02;11.85;;;7.88;;
29162;SDS011;20331;53.144;8.208;2024-02-26T11:04:24;12.70;;;7.72;;
29162;SDS011;20331;53.144;8.208;2024-02-26T11:09:49;9.10;;;7.17;;
29162;SDS011;20331;53.144;8.208;2024-02-26T11:15:13;11.05;;;7.72;;
29162;SDS011;20331;53.144;8.208;2024-02-26T11:20:38;9.05;;;7.30;;
29162;SDS011;20331;53.144;8.208;2024-02-26T11:26:01;10.02;;;7.45;;
29162;SDS011;20331;53.144;8.208;2024-02-26T11:31:27;9.63;;;7.72;;
29162;SDS011;20331;53.144;8.208;2024-02-26T11:36:49;15.77;;;8.13;;
29162;SDS011;20331;53.144;8.208;2024-02-26T11:42:13;10.52;;;8.20;;
29162;SDS011;20331;53.144;8.208;2024-02-26T11:47:36;12.32;;;8.40;;
29162;SDS011;20331;53.144;8.208;2024-02-26T11:53:20;11.30;;;7.72;;
29162;SDS011;20331;53.144;8.208;2024-02-26T11:58:48;10.05;;;7.93;;
29162;SDS011;20331;53.144;8.208;2024-02-26T12:04:19;12.50;;;9.00;;
29162;SDS011;20331;53.144;8.208;2024-02-26T12:09:47;12.95;;;9.13;;
29162;SDS011;20331;53.144;8.208;2024-02-26T12:15:09;10.35;;;8.57;;
29162;SDS011;20331;53.144;8.208;2024-02-26T12:20:32;11.70;;;8.95;;
29162;SDS011;20331;53.144;8.208;2024-02-26T12:25:58;13.93;;;8.65;;
29162;SDS011;20331;53.144;8.208;2024-02-26T12:31:21;12.60;;;9.10;;
29162;SDS011;20331;53.144;8.208;2024-02-26T12:36:43;12.05;;;8.93;;
29162;SDS011;20331;53.144;8.208;2024-02-26T12:42:05;13.88;;;9.85;;
29162;SDS011;20331;53.144;8.208;2024-02-26T12:47:27;13.90;;;9.60;;
29162;SDS011;20331;53.144;8.208;2024-02-26T12:52:50;13.55;;;9.65;;
29162;SDS011;20331;53.144;8.208;2024-02-26T12:58:14;11.70;;;9.43;;
29162;SDS011;20331;53.144;8.208;2024-02-26T13:03:36;11.73;;;9.40;;
29162;SDS011;20331;53.144;8.208;2024-02-26T13:08:59;15.52;;;10.02;;
29162;SDS011;20331;53.144;8.208;2024-02-26T13:14:21;12.85;;;9.25;;
29162;SDS011;20331;53.144;8.208;2024-02-26T13:19:49;21.17;;;9.50;;
29162;SDS011;20331;53.144;8.208;2024-02-26T13:25:13;13.50;;;9.95;;
29162;SDS011;20331;53.144;8.208;2024-02-26T13:30:36;13.95;;;9.70;;
29162;SDS011;20331;53.144;8.208;2024-02-26T13:35:58;12.30;;;9.18;;
29162;SDS011;20331;53.144;8.208;2024-02-26T13:41:21;12.07;;;9.75;;
29162;SDS011;20331;53.144;8.208;2024-02-26T13:46:44;13.07;;;10.00;;
29162;SDS011;20331;53.144;8.208;2024-02-26T13:52:06;14.85;;;11.02;;
29162;SDS011;20331;53.144;8.208;2024-02-26T13:57:27;14.63;;;10.57;;
29162;SDS011;20331;53.144;8.208;2024-02-26T14:02:50;14.73;;;10.38;;
29162;SDS011;20331;53.144;8.208;2024-02-26T14:08:12;17.55;;;10.70;;
29162;SDS011;20331;53.144;8.208;2024-02-26T14:13:34;15.05;;;10.75;;
29162;SDS011;20331;53.144;8.208;2024-02-26T14:19:00;14.95;;;10.63;;
29162;SDS011;20331;53.144;8.208;2024-02-26T14:24:22;13.98;;;10.77;;
29162;SDS011;20331;53.144;8.208;2024-02-26T14:29:44;16.00;;;12.25;;
29162;SDS011;20331;53.144;8.208;2024-02-26T14:35:08;15.27;;;11.13;;
29162;SDS011;20331;53.144;8.208;2024-02-26T14:40:38;14.00;;;10.57;;
29162;SDS011;20331;53.144;8.208;2024-02-26T14:46:01;15.35;;;11.10;;
29162;SDS011;20331;53.144;8.208;2024-02-26T14:51:23;15.73;;;11.57;;
29162;SDS011;20331;53.144;8.208;2024-02-26T14:56:45;15.63;;;10.98;;
29162;SDS011;20331;53.144;8.208;2024-02-26T15:02:08;17.58;;;11.70;;
29162;SDS011;20331;53.144;8.208;2024-02-26T15:07:31;16.80;;;11.52;;
29162;SDS011;20331;53.144;8.208;2024-02-26T15:12:53;18.17;;;11.93;;
29162;SDS011;20331;53.144;8.208;2024-02-26T15:18:16;17.30;;;12.20;;
29162;SDS011;20331;53.144;8.208;2024-02-26T15:23:39;16.65;;;11.70;;
29162;SDS011;20331;53.144;8.208;2024-02-26T15:29:06;17.08;;;11.90;;
29162;SDS011;20331;53.144;8.208;2024-02-26T15:34:30;19.17;;;12.43;;
29162;SDS011;20331;53.144;8.208;2024-02-26T15:39:52;17.10;;;11.60;;
29162;SDS011;20331;53.144;8.208;2024-02-26T15:45:16;17.08;;;12.25;;
29162;SDS011;20331;53.144;8.208;2024-02-26T15:50:39;17.60;;;12.07;;
29162;SDS011;20331;53.144;8.208;2024-02-26T15:56:06;18.13;;;12.45;;
29162;SDS011;20331;53.144;8.208;2024-02-26T16:01:27;16.70;;;12.05;;
29162;SDS011;20331;53.144;8.208;2024-02-26T16:06:56;16.20;;;11.63;;
29162;SDS011;20331;53.144;8.208;2024-02-26T16:12:27;17.10;;;11.90;;
29162;SDS011;20331;53.144;8.208;2024-02-26T16:17:58;18.90;;;12.50;;
29162;SDS011;20331;53.144;8.208;2024-02-26T16:23:21;17.13;;;12.32;;
29162;SDS011;20331;53.144;8.208;2024-02-26T16:28:47;19.98;;;12.23;;
29162;SDS011;20331;53.144;8.208;2024-02-26T16:34:09;18.40;;;12.88;;
29162;SDS011;20331;53.144;8.208;2024-02-26T16:39:31;17.88;;;12.07;;
29162;SDS011;20331;53.144;8.208;2024-02-26T16:45:01;18.90;;;13.23;;
29162;SDS011;20331;53.144;8.208;2024-02-26T16:50:25;20.88;;;13.02;;
29162;SDS011;20331;53.144;8.208;2024-02-26T16:55:47;18.30;;;12.57;;
29162;SDS011;20331;53.144;8.208;2024-02-26T17:01:09;18.88;;;13.65;;
29162;SDS011;20331;53.144;8.208;2024-02-26T17:06:31;22.45;;;13.63;;
29162;SDS011;20331;53.144;8.208;2024-02-26T17:11:53;19.75;;;13.85;;
29162;SDS011;20331;53.144;8.208;2024-02-26T17:17:16;22.25;;;14.35;;
29162;SDS011;20331;53.144;8.208;2024-02-26T17:22:37;21.48;;;14.07;;
29162;SDS011;20331;53.144;8.208;2024-02-26T17:27:59;20.33;;;13.93;;
29162;SDS011;20331;53.144;8.208;2024-02-26T17:33:21;21.83;;;14.48;;
29162;SDS011;20331;53.144;8.208;2024-02-26T17:38:43;24.45;;;15.10;;
29162;SDS011;20331;53.144;8.208;2024-02-26T17:44:07;22.48;;;14.52;;
29162;SDS011;20331;53.144;8.208;2024-02-26T17:49:29;20.58;;;13.77;;
29162;SDS011;20331;53.144;8.208;2024-02-26T17:54:51;20.52;;;14.18;;
29162;SDS011;20331;53.144;8.208;2024-02-26T18:00:13;20.80;;;14.18;;
29162;SDS011;20331;53.144;8.208;2024-02-26T18:05:35;19.38;;;13.02;;
29162;SDS011;20331;53.144;8.208;2024-02-26T18:10:59;20.50;;;13.43;;
29162;SDS011;20331;53.144;8.208;2024-02-26T18:16:21;19.80;;;13.18;;
29162;SDS011;20331;53.144;8.208;2024-02-26T18:21:43;20.05;;;13.63;;
29162;SDS011;20331;53.144;8.208;2024-02-26T18:27:05;20.05;;;13.52;;
29162;SDS011;20331;53.144;8.208;2024-02-26T18:32:27;20.70;;;14.02;;
29162;SDS011;20331;53.144;8.208;2024-02-26T18:37:48;20.00;;;13.00;;
29162;SDS011;20331;53.144;8.208;2024-02-26T18:43:10;21.30;;;13.63;;
29162;SDS011;20331;53.144;8.208;2024-02-26T18:48:32;18.58;;;12.90;;
29162;SDS011;20331;53.144;8.208;2024-02-26T18:53:57;19.08;;;13.15;;
29162;SDS011;20331;53.144;8.208;2024-02-26T18:59:19;21.30;;;12.93;;
29162;SDS011;20331;53.144;8.208;2024-02-26T19:04:41;19.40;;;13.27;;
29162;SDS011;20331;53.144;8.208;2024-02-26T19:10:05;22.05;;;13.73;;
29162;SDS011;20331;53.144;8.208;2024-02-26T19:15:27;20.50;;;14.00;;
29162;SDS011;20331;53.144;8.208;2024-02-26T19:20:49;19.80;;;13.13;;
29162;SDS011;20331;53.144;8.208;2024-02-26T19:26:11;21.05;;;13.63;;
29162;SDS011;20331;53.144;8.208;2024-02-26T19:31:33;19.88;;;12.13;;
29162;SDS011;20331;53.144;8.208;2024-02-26T19:36:55;19.58;;;12.57;;
29162;SDS011;20331;53.144;8.208;2024-02-26T19:42:16;15.85;;;11.50;;
29162;SDS011;20331;53.144;8.208;2024-02-26T19:47:38;17.98;;;12.73;;
29162;SDS011;20331;53.144;8.208;2024-02-26T19:53:01;16.65;;;11.82;;
29162;SDS011;20331;53.144;8.208;2024-02-26T19:58:23;18.55;;;12.60;;
29162;SDS011;20331;53.144;8.208;2024-02-26T20:03:45;17.17;;;12.30;;
29162;SDS011;20331;53.144;8.208;2024-02-26T20:09:10;17.23;;;12.65;;
29162;SDS011;20331;53.144;8.208;2024-02-26T20:14:32;19.60;;;13.77;;
29162;SDS011;20331;53.144;8.208;2024-02-26T20:19:54;24.80;;;14.35;;
29162;SDS011;20331;53.144;8.208;2024-02-26T20:25:22;22.58;;;15.27;;
29162;SDS011;20331;53.144;8.208;2024-02-26T20:30:44;22.58;;;15.18;;
29162;SDS011;20331;53.144;8.208;2024-02-26T20:36:06;24.98;;;15.18;;
29162;SDS011;20331;53.144;8.208;2024-02-26T20:41:28;21.83;;;14.88;;
29162;SDS011;20331;53.144;8.208;2024-02-26T20:46:50;25.67;;;16.38;;
29162;SDS011;20331;53.144;8.208;2024-02-26T20:52:17;23.33;;;15.25;;
29162;SDS011;20331;53.144;8.208;2024-02-26T20:57:39;21.33;;;15.18;;
29162;SDS011;20331;53.144;8.208;2024-02-26T21:03:01;25.35;;;15.98;;
29162;SDS011;20331;53.144;8.208;2024-02-26T21:08:29;22.83;;;15.27;;
29162;SDS011;20331;53.144;8.208;2024-02-26T21:13:58;23.13;;;15.77;;
29162;SDS011;20331;53.144;8.208;2024-02-26T21:19:20;21.42;;;15.25;;
29162;SDS011;20331;53.144;8.208;2024-02-26T21:24:41;24.35;;;15.80;;
29162;SDS011;20331;53.144;8.208;2024-02-26T21:30:04;24.25;;;15.95;;
29162;SDS011;20331;53.144;8.208;2024-02-26T21:35:26;25.52;;;17.10;;
29162;SDS011;20331;53.144;8.208;2024-02-26T21:40:50;25.75;;;16.40;;
29162;SDS011;20331;53.144;8.208;2024-02-26T21:46:12;27.13;;;17.90;;
29162;SDS011;20331;53.144;8.208;2024-02-26T21:51:40;25.55;;;17.10;;
29162;SDS011;20331;53.144;8.208;2024-02-26T21:57:10;26.73;;;16.33;;
29162;SDS011;20331;53.144;8.208;2024-02-26T22:02:32;25.05;;;16.42;;
29162;SDS011;20331;53.144;8.208;2024-02-26T22:07:53;25.95;;;17.52;;
29162;SDS011;20331;53.144;8.208;2024-02-26T22:13:15;26.63;;;16.80;;
29162;SDS011;20331;53.144;8.208;2024-02-26T22:18:37;28.77;;;16.33;;
29162;SDS011;20331;53.144;8.208;2024-02-26T22:24:01;26.08;;;17.77;;
29162;SDS011;20331;53.144;8.208;2024-02-26T22:29:23;27.25;;;17.85;;
29162;SDS011;20331;53.144;8.208;2024-02-26T22:34:47;27.42;;;17.45;;
29162;SDS011;20331;53.144;8.208;2024-02-26T22:40:09;31.20;;;18.38;;
29162;SDS011;20331;53.144;8.208;2024-02-26T22:45:34;27.83;;;17.10;;
29162;SDS011;20331;53.144;8.208;2024-02-26T22:50:56;30.45;;;17.50;;
29162;SDS011;20331;53.144;8.208;2024-02-26T22:56:18;27.10;;;18.15;;
29162;SDS011;20331;53.144;8.208;2024-02-26T23:01:40;31.08;;;18.00;;
29162;SDS011;20331;53.144;8.208;2024-02-26T23:07:01;30.83;;;18.50;;
29162;SDS011;20331;53.144;8.208;2024-02-26T23:12:23;30.58;;;17.90;;
29162;SDS011;20331;53.144;8.208;2024-02-26T23:17:45;32.83;;;19.73;;
29162;SDS011;20331;53.144;8.208;2024-02-26T23:23:10;30.75;;;19.23;;
29162;SDS011;20331;53.144;8.208;2024-02-26T23:28:31;33.05;;;19.83;;
29162;SDS011;20331;53.144;8.208;2024-02-26T23:33:53;30.75;;;18.35;;
29162;SDS011;20331;53.144;8.208;2024-02-26T23:39:19;31.23;;;20.48;;
29162;SDS011;20331;53.144;8.208;2024-02-26T23:44:40;31.30;;;19.70;;
29162;SDS011;20331;53.144;8.208;2024-02-26T23:50:03;32.38;;;19.67;;
29162;SDS011;20331;53.144;8.208;2024-02-26T23:55:25;35.63;;;21.13;;
